Amityville, New York
Current Conditions -  °F | °C
As of 6:53 PM on Saturday 25 Oct 2014 (Local Time) from KFRG Reporting Station
Clear Clear  
Wind Chill: 62°   Ceiling: Unl
Heat Index: 62°   Visibility: 10mi
Dew Point: 44°   Wind: 7mph
Humidity: 52%   Direction: 230°SW
Pressure: 29.65"   Gusts: NA
Location:  40.68°N, 73.42°W
Report Text: KFRG 252253Z 23006KT 10SM CLR 17/07 A2965 RMK AO2 SLP041 T01670067
Loading
Personal Weather Stations






























Interactive Weather Map New forecast layout! Learn more

10-Day Weather Forecast

Advertisements
Track Severe Weather on mobile